Preview of NWS' New Version of Forecast
This preview is not operational and should not be used for support decisions.

Terminal Aerodrome Forecast (TAF)

Issued by National Weather Service (NWS)

                            
000
FTUS42 KKEY 201159 RRA
TAFEYW
TAF
KEYW 201159Z 2012/2112 04012KT P6SM SCT015 BKN070
      TEMPO 2013/2015 BKN008 BKN015
     FM201600 01010KT P6SM FEW015=